sensor_id;sensor_type;location;lat;lon;timestamp;temperature;humidity
45283;DHT22;31023;44.994;1.796;2023-04-08T00:00:35;8.80;69.50
45283;DHT22;31023;44.994;1.796;2023-04-08T00:03:02;8.60;70.40
45283;DHT22;31023;44.994;1.796;2023-04-08T00:05:28;8.60;70.50
45283;DHT22;31023;44.994;1.796;2023-04-08T00:07:54;8.80;69.80
45283;DHT22;31023;44.994;1.796;2023-04-08T00:10:19;8.60;70.60
45283;DHT22;31023;44.994;1.796;2023-04-08T00:12:46;8.50;70.70
45283;DHT22;31023;44.994;1.796;2023-04-08T00:15:12;8.60;70.60
45283;DHT22;31023;44.994;1.796;2023-04-08T00:17:38;8.60;71.00
45283;DHT22;31023;44.994;1.796;2023-04-08T00:20:04;8.40;71.20
45283;DHT22;31023;44.994;1.796;2023-04-08T00:22:30;8.40;71.50
45283;DHT22;31023;44.994;1.796;2023-04-08T00:24:56;8.50;70.90
45283;DHT22;31023;44.994;1.796;2023-04-08T00:27:22;8.40;71.30
45283;DHT22;31023;44.994;1.796;2023-04-08T00:29:50;8.30;71.60
45283;DHT22;31023;44.994;1.796;2023-04-08T00:32:16;8.40;71.40
45283;DHT22;31023;44.994;1.796;2023-04-08T00:34:41;8.40;71.70
45283;DHT22;31023;44.994;1.796;2023-04-08T00:37:08;8.30;71.90
45283;DHT22;31023;44.994;1.796;2023-04-08T00:39:33;8.20;72.10
45283;DHT22;31023;44.994;1.796;2023-04-08T00:41:59;8.20;72.10
45283;DHT22;31023;44.994;1.796;2023-04-08T00:44:26;8.20;71.90
45283;DHT22;31023;44.994;1.796;2023-04-08T00:46:52;8.10;72.40
45283;DHT22;31023;44.994;1.796;2023-04-08T00:49:18;8.10;72.80
45283;DHT22;31023;44.994;1.796;2023-04-08T00:51:44;8.00;73.80
45283;DHT22;31023;44.994;1.796;2023-04-08T00:54:09;8.00;73.00
45283;DHT22;31023;44.994;1.796;2023-04-08T00:56:35;8.00;73.30
45283;DHT22;31023;44.994;1.796;2023-04-08T00:59:02;7.90;73.60
45283;DHT22;31023;44.994;1.796;2023-04-08T01:04:11;7.90;74.20
45283;DHT22;31023;44.994;1.796;2023-04-08T01:06:43;7.90;74.00
45283;DHT22;31023;44.994;1.796;2023-04-08T01:09:13;7.90;73.70
45283;DHT22;31023;44.994;1.796;2023-04-08T01:11:43;7.70;74.70
45283;DHT22;31023;44.994;1.796;2023-04-08T01:14:16;7.80;74.30
45283;DHT22;31023;44.994;1.796;2023-04-08T01:16:43;7.70;74.50
45283;DHT22;31023;44.994;1.796;2023-04-08T01:19:16;7.60;75.10
45283;DHT22;31023;44.994;1.796;2023-04-08T01:21:46;7.70;75.60
45283;DHT22;31023;44.994;1.796;2023-04-08T01:24:28;7.70;74.60
45283;DHT22;31023;44.994;1.796;2023-04-08T01:26:56;7.60;75.00
45283;DHT22;31023;44.994;1.796;2023-04-08T01:29:23;7.60;75.30
45283;DHT22;31023;44.994;1.796;2023-04-08T01:31:49;7.60;75.40
45283;DHT22;31023;44.994;1.796;2023-04-08T01:34:18;7.40;76.30
45283;DHT22;31023;44.994;1.796;2023-04-08T01:36:45;7.50;76.40
45283;DHT22;31023;44.994;1.796;2023-04-08T01:39:13;7.60;75.80
45283;DHT22;31023;44.994;1.796;2023-04-08T01:41:39;7.50;76.10
45283;DHT22;31023;44.994;1.796;2023-04-08T01:44:05;7.40;76.40
45283;DHT22;31023;44.994;1.796;2023-04-08T01:46:31;7.30;76.90
45283;DHT22;31023;44.994;1.796;2023-04-08T01:48:58;7.20;77.10
45283;DHT22;31023;44.994;1.796;2023-04-08T01:51:24;7.20;77.30
45283;DHT22;31023;44.994;1.796;2023-04-08T01:53:51;7.20;77.50
45283;DHT22;31023;44.994;1.796;2023-04-08T01:56:20;7.20;77.80
45283;DHT22;31023;44.994;1.796;2023-04-08T01:58:51;7.20;77.60
45283;DHT22;31023;44.994;1.796;2023-04-08T02:01:17;7.30;77.40
45283;DHT22;31023;44.994;1.796;2023-04-08T02:03:45;7.10;78.10
45283;DHT22;31023;44.994;1.796;2023-04-08T02:06:12;7.00;78.80
45283;DHT22;31023;44.994;1.796;2023-04-08T02:08:37;7.10;78.30
45283;DHT22;31023;44.994;1.796;2023-04-08T02:11:03;7.00;78.60
45283;DHT22;31023;44.994;1.796;2023-04-08T02:13:29;6.90;78.70
45283;DHT22;31023;44.994;1.796;2023-04-08T02:16:17;7.20;78.00
45283;DHT22;31023;44.994;1.796;2023-04-08T02:18:57;7.00;78.10
45283;DHT22;31023;44.994;1.796;2023-04-08T02:21:30;7.00;78.60
45283;DHT22;31023;44.994;1.796;2023-04-08T02:24:00;6.80;79.30
45283;DHT22;31023;44.994;1.796;2023-04-08T02:26:29;6.80;79.20
45283;DHT22;31023;44.994;1.796;2023-04-08T02:28:58;6.70;79.50
45283;DHT22;31023;44.994;1.796;2023-04-08T02:31:25;6.80;80.00
45283;DHT22;31023;44.994;1.796;2023-04-08T02:33:51;6.70;80.20
45283;DHT22;31023;44.994;1.796;2023-04-08T02:36:18;6.60;80.30
45283;DHT22;31023;44.994;1.796;2023-04-08T02:38:50;6.60;80.70
45283;DHT22;31023;44.994;1.796;2023-04-08T02:41:16;6.50;81.10
45283;DHT22;31023;44.994;1.796;2023-04-08T02:43:42;6.50;81.30
45283;DHT22;31023;44.994;1.796;2023-04-08T02:46:09;6.40;81.90
45283;DHT22;31023;44.994;1.796;2023-04-08T02:48:35;6.30;82.10
45283;DHT22;31023;44.994;1.796;2023-04-08T02:51:01;6.40;82.10
45283;DHT22;31023;44.994;1.796;2023-04-08T02:53:27;6.50;81.80
45283;DHT22;31023;44.994;1.796;2023-04-08T02:55:53;6.50;81.60
45283;DHT22;31023;44.994;1.796;2023-04-08T02:58:19;6.50;82.20
45283;DHT22;31023;44.994;1.796;2023-04-08T03:00:44;6.50;82.40
45283;DHT22;31023;44.994;1.796;2023-04-08T03:03:10;6.40;82.80
45283;DHT22;31023;44.994;1.796;2023-04-08T03:05:36;6.30;83.10
45283;DHT22;31023;44.994;1.796;2023-04-08T03:08:01;6.40;83.10
45283;DHT22;31023;44.994;1.796;2023-04-08T03:10:27;6.30;83.60
45283;DHT22;31023;44.994;1.796;2023-04-08T03:12:53;6.30;83.60
45283;DHT22;31023;44.994;1.796;2023-04-08T03:15:19;6.20;84.00
45283;DHT22;31023;44.994;1.796;2023-04-08T03:17:44;6.10;84.60
45283;DHT22;31023;44.994;1.796;2023-04-08T03:20:10;6.10;84.70
45283;DHT22;31023;44.994;1.796;2023-04-08T03:22:36;6.10;84.70
45283;DHT22;31023;44.994;1.796;2023-04-08T03:25:02;5.90;85.60
45283;DHT22;31023;44.994;1.796;2023-04-08T03:27:28;5.90;85.60
45283;DHT22;31023;44.994;1.796;2023-04-08T03:29:54;5.90;86.00
45283;DHT22;31023;44.994;1.796;2023-04-08T03:32:22;5.90;86.10
45283;DHT22;31023;44.994;1.796;2023-04-08T03:34:47;5.80;86.50
45283;DHT22;31023;44.994;1.796;2023-04-08T03:37:16;5.80;86.50
45283;DHT22;31023;44.994;1.796;2023-04-08T03:39:41;5.80;86.70
45283;DHT22;31023;44.994;1.796;2023-04-08T03:42:07;5.70;87.30
45283;DHT22;31023;44.994;1.796;2023-04-08T03:44:33;5.50;88.00
45283;DHT22;31023;44.994;1.796;2023-04-08T03:46:58;5.50;88.00
45283;DHT22;31023;44.994;1.796;2023-04-08T03:49:24;5.50;87.90
45283;DHT22;31023;44.994;1.796;2023-04-08T03:51:50;5.50;88.30
45283;DHT22;31023;44.994;1.796;2023-04-08T03:54:15;5.50;88.30
45283;DHT22;31023;44.994;1.796;2023-04-08T03:56:41;5.40;89.10
45283;DHT22;31023;44.994;1.796;2023-04-08T03:59:07;5.30;89.60
45283;DHT22;31023;44.994;1.796;2023-04-08T04:01:32;5.30;89.90
45283;DHT22;31023;44.994;1.796;2023-04-08T04:03:58;5.20;90.10
45283;DHT22;31023;44.994;1.796;2023-04-08T04:06:24;5.20;90.30
45283;DHT22;31023;44.994;1.796;2023-04-08T04:08:52;5.20;90.10
45283;DHT22;31023;44.994;1.796;2023-04-08T04:11:18;5.20;90.20
45283;DHT22;31023;44.994;1.796;2023-04-08T04:13:45;5.30;90.00
45283;DHT22;31023;44.994;1.796;2023-04-08T04:16:11;5.20;90.30
45283;DHT22;31023;44.994;1.796;2023-04-08T04:18:36;5.20;90.40
45283;DHT22;31023;44.994;1.796;2023-04-08T04:21:05;5.00;90.60
45283;DHT22;31023;44.994;1.796;2023-04-08T04:23:31;5.10;90.70
45283;DHT22;31023;44.994;1.796;2023-04-08T04:25:57;5.00;90.70
45283;DHT22;31023;44.994;1.796;2023-04-08T04:28:23;5.00;90.70
45283;DHT22;31023;44.994;1.796;2023-04-08T04:30:48;5.10;90.60
45283;DHT22;31023;44.994;1.796;2023-04-08T04:33:14;5.20;90.50
45283;DHT22;31023;44.994;1.796;2023-04-08T04:35:39;5.00;90.80
45283;DHT22;31023;44.994;1.796;2023-04-08T04:38:05;5.10;90.90
45283;DHT22;31023;44.994;1.796;2023-04-08T04:40:37;5.20;90.40
45283;DHT22;31023;44.994;1.796;2023-04-08T04:43:04;5.10;90.60
45283;DHT22;31023;44.994;1.796;2023-04-08T04:45:30;5.10;90.70
45283;DHT22;31023;44.994;1.796;2023-04-08T04:47:56;5.20;90.40
45283;DHT22;31023;44.994;1.796;2023-04-08T04:50:21;5.10;90.60
45283;DHT22;31023;44.994;1.796;2023-04-08T04:52:47;5.10;90.80
45283;DHT22;31023;44.994;1.796;2023-04-08T04:55:13;5.10;90.80
45283;DHT22;31023;44.994;1.796;2023-04-08T04:57:40;4.90;91.10
45283;DHT22;31023;44.994;1.796;2023-04-08T05:00:06;5.00;91.00
45283;DHT22;31023;44.994;1.796;2023-04-08T05:02:33;5.00;91.30
45283;DHT22;31023;44.994;1.796;2023-04-08T05:04:58;4.80;91.50
45283;DHT22;31023;44.994;1.796;2023-04-08T05:07:24;5.00;91.40
45283;DHT22;31023;44.994;1.796;2023-04-08T05:09:50;4.90;91.60
45283;DHT22;31023;44.994;1.796;2023-04-08T05:12:15;4.90;91.70
45283;DHT22;31023;44.994;1.796;2023-04-08T05:14:41;4.90;91.90
45283;DHT22;31023;44.994;1.796;2023-04-08T05:17:07;4.90;91.70
45283;DHT22;31023;44.994;1.796;2023-04-08T05:19:32;4.90;91.60
45283;DHT22;31023;44.994;1.796;2023-04-08T05:21:58;4.80;91.70
45283;DHT22;31023;44.994;1.796;2023-04-08T05:24:24;4.70;92.00
45283;DHT22;31023;44.994;1.796;2023-04-08T05:26:50;4.70;92.00
45283;DHT22;31023;44.994;1.796;2023-04-08T05:29:17;4.60;92.20
45283;DHT22;31023;44.994;1.796;2023-04-08T05:31:43;4.60;92.40
45283;DHT22;31023;44.994;1.796;2023-04-08T05:34:10;4.70;92.50
45283;DHT22;31023;44.994;1.796;2023-04-08T05:36:36;5.10;92.10
45283;DHT22;31023;44.994;1.796;2023-04-08T05:39:01;5.90;90.10
45283;DHT22;31023;44.994;1.796;2023-04-08T05:41:27;6.40;87.40
45283;DHT22;31023;44.994;1.796;2023-04-08T05:43:53;6.70;85.20
45283;DHT22;31023;44.994;1.796;2023-04-08T05:46:18;6.90;84.80
45283;DHT22;31023;44.994;1.796;2023-04-08T05:48:44;7.30;83.00
45283;DHT22;31023;44.994;1.796;2023-04-08T05:51:14;7.60;81.50
45283;DHT22;31023;44.994;1.796;2023-04-08T05:53:40;7.70;81.40
45283;DHT22;31023;44.994;1.796;2023-04-08T05:56:05;8.00;79.80
45283;DHT22;31023;44.994;1.796;2023-04-08T05:58:31;8.10;78.20
45283;DHT22;31023;44.994;1.796;2023-04-08T06:00:57;8.40;78.20
45283;DHT22;31023;44.994;1.796;2023-04-08T06:03:23;8.60;77.60
45283;DHT22;31023;44.994;1.796;2023-04-08T06:05:48;8.80;76.70
45283;DHT22;31023;44.994;1.796;2023-04-08T06:08:14;8.80;76.00
45283;DHT22;31023;44.994;1.796;2023-04-08T06:10:48;9.20;75.70
45283;DHT22;31023;44.994;1.796;2023-04-08T06:13:13;9.30;75.60
45283;DHT22;31023;44.994;1.796;2023-04-08T06:15:40;9.80;73.00
45283;DHT22;31023;44.994;1.796;2023-04-08T06:18:06;10.00;72.80
45283;DHT22;31023;44.994;1.796;2023-04-08T06:20:31;10.30;71.50
45283;DHT22;31023;44.994;1.796;2023-04-08T06:22:57;10.50;71.60
45283;DHT22;31023;44.994;1.796;2023-04-08T06:25:22;10.70;70.20
45283;DHT22;31023;44.994;1.796;2023-04-08T06:27:49;10.80;70.20
45283;DHT22;31023;44.994;1.796;2023-04-08T06:30:14;10.90;71.00
45283;DHT22;31023;44.994;1.796;2023-04-08T06:32:41;11.10;70.20
45283;DHT22;31023;44.994;1.796;2023-04-08T06:35:07;11.20;69.80
45283;DHT22;31023;44.994;1.796;2023-04-08T06:37:33;11.20;68.70
45283;DHT22;31023;44.994;1.796;2023-04-08T06:40:03;11.20;70.80
45283;DHT22;31023;44.994;1.796;2023-04-08T06:42:29;11.50;69.30
45283;DHT22;31023;44.994;1.796;2023-04-08T06:44:55;11.50;68.60
45283;DHT22;31023;44.994;1.796;2023-04-08T06:47:21;11.70;68.20
45283;DHT22;31023;44.994;1.796;2023-04-08T06:49:46;11.90;68.00
45283;DHT22;31023;44.994;1.796;2023-04-08T06:52:12;12.00;67.00
45283;DHT22;31023;44.994;1.796;2023-04-08T06:54:38;11.80;67.00
45283;DHT22;31023;44.994;1.796;2023-04-08T06:57:04;11.90;66.80
45283;DHT22;31023;44.994;1.796;2023-04-08T06:59:29;12.10;66.80
45283;DHT22;31023;44.994;1.796;2023-04-08T07:01:55;12.50;65.30
45283;DHT22;31023;44.994;1.796;2023-04-08T07:04:21;12.50;65.30
45283;DHT22;31023;44.994;1.796;2023-04-08T07:06:46;12.50;64.90
45283;DHT22;31023;44.994;1.796;2023-04-08T07:09:12;12.90;64.80
45283;DHT22;31023;44.994;1.796;2023-04-08T07:11:37;12.90;65.10
45283;DHT22;31023;44.994;1.796;2023-04-08T07:14:03;13.00;63.90
45283;DHT22;31023;44.994;1.796;2023-04-08T07:16:29;13.40;62.20
45283;DHT22;31023;44.994;1.796;2023-04-08T07:18:55;13.40;63.10
45283;DHT22;31023;44.994;1.796;2023-04-08T07:21:21;13.70;61.80
45283;DHT22;31023;44.994;1.796;2023-04-08T07:23:46;13.00;62.50
45283;DHT22;31023;44.994;1.796;2023-04-08T07:26:12;13.50;61.30
45283;DHT22;31023;44.994;1.796;2023-04-08T07:28:38;14.20;61.90
45283;DHT22;31023;44.994;1.796;2023-04-08T07:31:13;14.60;59.10
45283;DHT22;31023;44.994;1.796;2023-04-08T07:33:40;14.90;59.30
45283;DHT22;31023;44.994;1.796;2023-04-08T07:36:08;15.10;59.70
45283;DHT22;31023;44.994;1.796;2023-04-08T07:38:33;15.40;59.20
45283;DHT22;31023;44.994;1.796;2023-04-08T07:40:59;15.50;58.00
45283;DHT22;31023;44.994;1.796;2023-04-08T07:43:25;15.30;57.70
45283;DHT22;31023;44.994;1.796;2023-04-08T07:45:51;15.40;56.70
45283;DHT22;31023;44.994;1.796;2023-04-08T07:48:17;15.50;56.50
45283;DHT22;31023;44.994;1.796;2023-04-08T07:50:42;16.10;56.80
45283;DHT22;31023;44.994;1.796;2023-04-08T07:53:10;15.90;56.50
45283;DHT22;31023;44.994;1.796;2023-04-08T07:55:36;15.80;55.50
45283;DHT22;31023;44.994;1.796;2023-04-08T07:58:01;16.70;54.20
45283;DHT22;31023;44.994;1.796;2023-04-08T08:00:27;16.20;53.90
45283;DHT22;31023;44.994;1.796;2023-04-08T08:02:55;16.70;54.80
45283;DHT22;31023;44.994;1.796;2023-04-08T08:05:21;17.30;54.70
45283;DHT22;31023;44.994;1.796;2023-04-08T08:07:46;17.10;54.50
45283;DHT22;31023;44.994;1.796;2023-04-08T08:10:12;17.40;52.50
45283;DHT22;31023;44.994;1.796;2023-04-08T08:12:38;18.00;53.30
45283;DHT22;31023;44.994;1.796;2023-04-08T08:15:04;18.30;51.50
45283;DHT22;31023;44.994;1.796;2023-04-08T08:17:30;18.30;51.80
45283;DHT22;31023;44.994;1.796;2023-04-08T08:19:58;18.20;50.90
45283;DHT22;31023;44.994;1.796;2023-04-08T08:22:24;18.40;49.10
45283;DHT22;31023;44.994;1.796;2023-04-08T08:24:55;19.00;49.10
45283;DHT22;31023;44.994;1.796;2023-04-08T08:27:21;19.40;48.40
45283;DHT22;31023;44.994;1.796;2023-04-08T08:29:46;19.50;47.80
45283;DHT22;31023;44.994;1.796;2023-04-08T08:32:12;20.30;50.30
45283;DHT22;31023;44.994;1.796;2023-04-08T08:34:38;20.30;48.70
45283;DHT22;31023;44.994;1.796;2023-04-08T08:37:03;20.60;47.60
45283;DHT22;31023;44.994;1.796;2023-04-08T08:39:29;20.70;46.80
45283;DHT22;31023;44.994;1.796;2023-04-08T08:41:55;20.40;48.30
45283;DHT22;31023;44.994;1.796;2023-04-08T08:44:22;21.60;46.10
45283;DHT22;31023;44.994;1.796;2023-04-08T08:46:47;22.70;45.40
45283;DHT22;31023;44.994;1.796;2023-04-08T08:49:13;21.70;44.50
45283;DHT22;31023;44.994;1.796;2023-04-08T08:51:40;21.30;45.30
45283;DHT22;31023;44.994;1.796;2023-04-08T08:54:07;21.70;45.40
45283;DHT22;31023;44.994;1.796;2023-04-08T08:56:33;22.60;44.70
45283;DHT22;31023;44.994;1.796;2023-04-08T08:58:59;22.00;46.30
45283;DHT22;31023;44.994;1.796;2023-04-08T09:01:40;22.50;43.80
45283;DHT22;31023;44.994;1.796;2023-04-08T09:04:07;23.90;42.90
45283;DHT22;31023;44.994;1.796;2023-04-08T09:06:33;22.60;41.60
45283;DHT22;31023;44.994;1.796;2023-04-08T09:08:58;22.60;42.30
45283;DHT22;31023;44.994;1.796;2023-04-08T09:11:25;23.10;41.50
45283;DHT22;31023;44.994;1.796;2023-04-08T09:13:50;23.70;41.70
45283;DHT22;31023;44.994;1.796;2023-04-08T09:16:18;24.80;41.70
45283;DHT22;31023;44.994;1.796;2023-04-08T09:18:45;24.30;41.90
45283;DHT22;31023;44.994;1.796;2023-04-08T09:21:12;23.50;41.20
45283;DHT22;31023;44.994;1.796;2023-04-08T09:23:49;23.70;41.40
45283;DHT22;31023;44.994;1.796;2023-04-08T09:26:22;25.00;39.90
45283;DHT22;31023;44.994;1.796;2023-04-08T09:31:30;24.10;38.00
45283;DHT22;31023;44.994;1.796;2023-04-08T09:33:57;24.90;38.30
45283;DHT22;31023;44.994;1.796;2023-04-08T09:36:24;24.60;38.90
45283;DHT22;31023;44.994;1.796;2023-04-08T09:38:53;24.80;37.40
45283;DHT22;31023;44.994;1.796;2023-04-08T09:41:19;25.50;39.10
45283;DHT22;31023;44.994;1.796;2023-04-08T09:43:53;25.80;37.60
45283;DHT22;31023;44.994;1.796;2023-04-08T09:46:39;25.90;36.10
45283;DHT22;31023;44.994;1.796;2023-04-08T09:49:27;25.80;37.80
45283;DHT22;31023;44.994;1.796;2023-04-08T09:52:08;26.20;36.90
45283;DHT22;31023;44.994;1.796;2023-04-08T09:57:13;27.00;37.10
45283;DHT22;31023;44.994;1.796;2023-04-08T09:59:47;26.00;36.50
45283;DHT22;31023;44.994;1.796;2023-04-08T10:02:19;25.80;39.00
45283;DHT22;31023;44.994;1.796;2023-04-08T10:04:51;25.20;37.00
45283;DHT22;31023;44.994;1.796;2023-04-08T10:07:18;24.70;38.80
45283;DHT22;31023;44.994;1.796;2023-04-08T10:09:44;25.20;34.40
45283;DHT22;31023;44.994;1.796;2023-04-08T10:12:10;25.20;36.20
45283;DHT22;31023;44.994;1.796;2023-04-08T10:14:36;24.30;37.60
45283;DHT22;31023;44.994;1.796;2023-04-08T10:17:24;22.60;38.60
45283;DHT22;31023;44.994;1.796;2023-04-08T10:19:53;22.10;43.60
45283;DHT22;31023;44.994;1.796;2023-04-08T10:27:42;20.50;43.30
45283;DHT22;31023;44.994;1.796;2023-04-08T10:32:57;20.00;46.30
45283;DHT22;31023;44.994;1.796;2023-04-08T10:35:31;19.90;47.70
45283;DHT22;31023;44.994;1.796;2023-04-08T10:37:57;20.10;44.20
45283;DHT22;31023;44.994;1.796;2023-04-08T10:40:23;19.50;42.40
45283;DHT22;31023;44.994;1.796;2023-04-08T10:42:55;19.60;45.60
45283;DHT22;31023;44.994;1.796;2023-04-08T10:45:21;19.60;44.20
45283;DHT22;31023;44.994;1.796;2023-04-08T10:47:47;19.10;48.20
45283;DHT22;31023;44.994;1.796;2023-04-08T10:50:14;19.10;44.60
45283;DHT22;31023;44.994;1.796;2023-04-08T10:52:50;19.30;47.80
45283;DHT22;31023;44.994;1.796;2023-04-08T10:55:26;19.00;47.00
45283;DHT22;31023;44.994;1.796;2023-04-08T10:57:52;19.10;47.90
45283;DHT22;31023;44.994;1.796;2023-04-08T11:00:31;18.90;49.20
45283;DHT22;31023;44.994;1.796;2023-04-08T11:03:04;18.60;48.20
45283;DHT22;31023;44.994;1.796;2023-04-08T11:05:31;18.50;47.80
45283;DHT22;31023;44.994;1.796;2023-04-08T11:08:00;18.60;49.10
45283;DHT22;31023;44.994;1.796;2023-04-08T11:10:27;18.80;51.30
45283;DHT22;31023;44.994;1.796;2023-04-08T11:12:57;18.70;48.10
45283;DHT22;31023;44.994;1.796;2023-04-08T11:15:25;18.20;45.70
45283;DHT22;31023;44.994;1.796;2023-04-08T11:17:53;18.00;47.40
45283;DHT22;31023;44.994;1.796;2023-04-08T11:20:19;18.20;50.60
45283;DHT22;31023;44.994;1.796;2023-04-08T11:22:46;18.20;47.60
45283;DHT22;31023;44.994;1.796;2023-04-08T11:25:12;18.30;49.70
45283;DHT22;31023;44.994;1.796;2023-04-08T11:27:38;18.10;46.40
45283;DHT22;31023;44.994;1.796;2023-04-08T11:30:05;18.40;47.50
45283;DHT22;31023;44.994;1.796;2023-04-08T11:32:32;18.30;49.20
45283;DHT22;31023;44.994;1.796;2023-04-08T11:34:59;18.30;45.70
45283;DHT22;31023;44.994;1.796;2023-04-08T11:37:38;18.20;47.10
45283;DHT22;31023;44.994;1.796;2023-04-08T11:40:09;18.00;46.00
45283;DHT22;31023;44.994;1.796;2023-04-08T11:42:36;17.80;47.20
45283;DHT22;31023;44.994;1.796;2023-04-08T11:45:10;18.10;49.50
45283;DHT22;31023;44.994;1.796;2023-04-08T11:47:36;18.20;50.90
45283;DHT22;31023;44.994;1.796;2023-04-08T11:50:02;18.20;45.00
45283;DHT22;31023;44.994;1.796;2023-04-08T11:52:45;18.20;44.50
45283;DHT22;31023;44.994;1.796;2023-04-08T11:55:20;17.70;48.10
45283;DHT22;31023;44.994;1.796;2023-04-08T11:57:47;17.50;45.70
45283;DHT22;31023;44.994;1.796;2023-04-08T12:00:12;17.90;48.60
45283;DHT22;31023;44.994;1.796;2023-04-08T12:02:39;18.10;50.10
45283;DHT22;31023;44.994;1.796;2023-04-08T12:05:11;18.00;53.40
45283;DHT22;31023;44.994;1.796;2023-04-08T12:07:37;17.90;54.10
45283;DHT22;31023;44.994;1.796;2023-04-08T12:10:03;18.10;52.60
45283;DHT22;31023;44.994;1.796;2023-04-08T12:12:28;18.10;52.90
45283;DHT22;31023;44.994;1.796;2023-04-08T12:14:54;18.10;51.60
45283;DHT22;31023;44.994;1.796;2023-04-08T12:17:20;17.90;50.50
45283;DHT22;31023;44.994;1.796;2023-04-08T12:19:45;18.10;54.20
45283;DHT22;31023;44.994;1.796;2023-04-08T12:22:11;17.80;50.10
45283;DHT22;31023;44.994;1.796;2023-04-08T12:24:37;17.80;50.10
45283;DHT22;31023;44.994;1.796;2023-04-08T12:27:02;17.80;51.90
45283;DHT22;31023;44.994;1.796;2023-04-08T12:29:29;17.90;54.00
45283;DHT22;31023;44.994;1.796;2023-04-08T12:31:55;17.80;51.90
45283;DHT22;31023;44.994;1.796;2023-04-08T12:34:21;17.80;52.50
45283;DHT22;31023;44.994;1.796;2023-04-08T12:36:47;17.80;55.00
45283;DHT22;31023;44.994;1.796;2023-04-08T12:39:14;17.70;50.10
45283;DHT22;31023;44.994;1.796;2023-04-08T12:41:39;17.50;52.60
45283;DHT22;31023;44.994;1.796;2023-04-08T12:44:05;17.70;52.90
45283;DHT22;31023;44.994;1.796;2023-04-08T12:46:31;17.60;49.90
45283;DHT22;31023;44.994;1.796;2023-04-08T12:48:57;17.50;49.80
45283;DHT22;31023;44.994;1.796;2023-04-08T12:51:22;17.60;54.30
45283;DHT22;31023;44.994;1.796;2023-04-08T12:53:50;17.70;48.10
45283;DHT22;31023;44.994;1.796;2023-04-08T12:56:16;17.60;51.40
45283;DHT22;31023;44.994;1.796;2023-04-08T12:58:42;17.70;53.50
45283;DHT22;31023;44.994;1.796;2023-04-08T13:01:08;17.60;51.60
45283;DHT22;31023;44.994;1.796;2023-04-08T13:03:33;17.50;52.60
45283;DHT22;31023;44.994;1.796;2023-04-08T13:06:00;17.70;57.30
45283;DHT22;31023;44.994;1.796;2023-04-08T13:08:26;17.80;55.60
45283;DHT22;31023;44.994;1.796;2023-04-08T13:10:52;17.70;55.80
45283;DHT22;31023;44.994;1.796;2023-04-08T13:13:18;17.60;53.30
45283;DHT22;31023;44.994;1.796;2023-04-08T13:15:44;17.60;54.80
45283;DHT22;31023;44.994;1.796;2023-04-08T13:18:10;17.70;58.30
45283;DHT22;31023;44.994;1.796;2023-04-08T13:20:35;17.60;54.90
45283;DHT22;31023;44.994;1.796;2023-04-08T13:23:01;17.60;53.20
45283;DHT22;31023;44.994;1.796;2023-04-08T13:25:27;17.50;56.60
45283;DHT22;31023;44.994;1.796;2023-04-08T13:27:53;17.70;52.20
45283;DHT22;31023;44.994;1.796;2023-04-08T13:30:18;17.60;49.70
45283;DHT22;31023;44.994;1.796;2023-04-08T13:32:44;17.50;44.20
45283;DHT22;31023;44.994;1.796;2023-04-08T13:35:10;17.40;43.30
45283;DHT22;31023;44.994;1.796;2023-04-08T13:37:36;17.20;45.40
45283;DHT22;31023;44.994;1.796;2023-04-08T13:40:02;17.20;44.20
45283;DHT22;31023;44.994;1.796;2023-04-08T13:42:28;17.40;44.70
45283;DHT22;31023;44.994;1.796;2023-04-08T13:44:56;17.40;44.10
45283;DHT22;31023;44.994;1.796;2023-04-08T13:47:22;17.60;46.40
45283;DHT22;31023;44.994;1.796;2023-04-08T13:49:47;17.30;43.50
45283;DHT22;31023;44.994;1.796;2023-04-08T13:52:13;17.30;43.40
45283;DHT22;31023;44.994;1.796;2023-04-08T13:54:40;17.40;40.70
45283;DHT22;31023;44.994;1.796;2023-04-08T13:57:05;17.40;44.10
45283;DHT22;31023;44.994;1.796;2023-04-08T13:59:31;17.30;42.90
45283;DHT22;31023;44.994;1.796;2023-04-08T14:01:57;17.20;46.40
45283;DHT22;31023;44.994;1.796;2023-04-08T14:04:22;17.30;45.80
45283;DHT22;31023;44.994;1.796;2023-04-08T14:06:48;17.50;45.90
45283;DHT22;31023;44.994;1.796;2023-04-08T14:09:16;17.50;45.60
45283;DHT22;31023;44.994;1.796;2023-04-08T14:11:42;17.40;44.90
45283;DHT22;31023;44.994;1.796;2023-04-08T14:14:08;17.50;44.50
45283;DHT22;31023;44.994;1.796;2023-04-08T14:16:33;17.70;44.90
45283;DHT22;31023;44.994;1.796;2023-04-08T14:19:00;17.60;44.80
45283;DHT22;31023;44.994;1.796;2023-04-08T14:21:26;17.60;48.20
45283;DHT22;31023;44.994;1.796;2023-04-08T14:23:52;17.70;46.10
45283;DHT22;31023;44.994;1.796;2023-04-08T14:26:18;17.50;44.00
45283;DHT22;31023;44.994;1.796;2023-04-08T14:28:43;17.60;47.20
45283;DHT22;31023;44.994;1.796;2023-04-08T14:31:09;17.40;48.30
45283;DHT22;31023;44.994;1.796;2023-04-08T14:33:35;17.40;49.20
45283;DHT22;31023;44.994;1.796;2023-04-08T14:36:01;17.60;47.00
45283;DHT22;31023;44.994;1.796;2023-04-08T14:38:26;17.50;47.30
45283;DHT22;31023;44.994;1.796;2023-04-08T14:40:52;17.40;44.20
45283;DHT22;31023;44.994;1.796;2023-04-08T14:43:19;17.40;45.30
45283;DHT22;31023;44.994;1.796;2023-04-08T14:45:45;17.30;46.20
45283;DHT22;31023;44.994;1.796;2023-04-08T14:48:11;17.40;50.30
45283;DHT22;31023;44.994;1.796;2023-04-08T14:50:36;17.50;47.10
45283;DHT22;31023;44.994;1.796;2023-04-08T14:53:02;17.50;45.80
45283;DHT22;31023;44.994;1.796;2023-04-08T14:55:28;17.60;46.90
45283;DHT22;31023;44.994;1.796;2023-04-08T14:57:55;17.60;47.00
45283;DHT22;31023;44.994;1.796;2023-04-08T15:00:21;17.50;43.60
45283;DHT22;31023;44.994;1.796;2023-04-08T15:02:47;17.50;44.20
45283;DHT22;31023;44.994;1.796;2023-04-08T15:05:12;17.40;45.10
45283;DHT22;31023;44.994;1.796;2023-04-08T15:07:38;17.40;44.60
45283;DHT22;31023;44.994;1.796;2023-04-08T15:10:04;17.40;45.10
45283;DHT22;31023;44.994;1.796;2023-04-08T15:12:30;17.30;43.90
45283;DHT22;31023;44.994;1.796;2023-04-08T15:14:57;17.20;45.60
45283;DHT22;31023;44.994;1.796;2023-04-08T15:17:23;17.10;45.50
45283;DHT22;31023;44.994;1.796;2023-04-08T15:19:50;17.20;47.60
45283;DHT22;31023;44.994;1.796;2023-04-08T15:22:16;17.10;44.50
45283;DHT22;31023;44.994;1.796;2023-04-08T15:24:42;17.10;45.30
45283;DHT22;31023;44.994;1.796;2023-04-08T15:27:08;17.20;45.70
45283;DHT22;31023;44.994;1.796;2023-04-08T15:29:34;17.30;44.80
45283;DHT22;31023;44.994;1.796;2023-04-08T15:32:00;17.30;46.90
45283;DHT22;31023;44.994;1.796;2023-04-08T15:34:25;17.30;45.90
45283;DHT22;31023;44.994;1.796;2023-04-08T15:36:51;17.20;43.90
45283;DHT22;31023;44.994;1.796;2023-04-08T15:39:17;17.30;43.90
45283;DHT22;31023;44.994;1.796;2023-04-08T15:41:42;17.30;43.20
45283;DHT22;31023;44.994;1.796;2023-04-08T15:44:08;17.30;46.20
45283;DHT22;31023;44.994;1.796;2023-04-08T15:46:34;17.20;44.10
45283;DHT22;31023;44.994;1.796;2023-04-08T15:48:59;17.20;45.80
45283;DHT22;31023;44.994;1.796;2023-04-08T15:51:25;17.30;44.70